createdAt,value
2023-05-25T00:00:28.305Z,52.85
2023-05-25T00:01:27.284Z,52.85
2023-05-25T00:02:28.395Z,52.82
2023-05-25T00:03:27.434Z,52.83
2023-05-25T00:04:27.475Z,52.82
2023-05-25T00:05:27.364Z,52.82
2023-05-25T00:06:28.437Z,52.77
2023-05-25T00:07:27.408Z,52.80
2023-05-25T00:08:28.475Z,52.79
2023-05-25T00:09:27.526Z,52.76
2023-05-25T00:10:28.490Z,52.77
2023-05-25T00:11:27.553Z,52.75
2023-05-25T00:12:28.562Z,52.76
2023-05-25T00:13:28.562Z,52.73
2023-05-25T00:14:28.564Z,52.71
2023-05-25T00:15:27.630Z,52.72
2023-05-25T00:16:28.640Z,52.74
2023-05-25T00:17:28.679Z,52.72
2023-05-25T00:18:27.682Z,52.72
2023-05-25T00:19:27.718Z,52.72
2023-05-25T00:20:28.791Z,52.73
2023-05-25T00:21:27.780Z,52.76
2023-05-25T00:22:28.818Z,52.74
2023-05-25T00:23:28.837Z,52.73
2023-05-25T00:24:27.867Z,52.72
2023-05-25T00:25:27.896Z,52.72
2023-05-25T00:26:27.956Z,52.72
2023-05-25T00:27:28.961Z,52.73
2023-05-25T00:28:28.975Z,52.69
2023-05-25T00:29:29.006Z,52.71
2023-05-25T00:30:29.041Z,52.69
2023-05-25T00:31:29.099Z,52.70
2023-05-25T00:32:29.071Z,52.69
2023-05-25T00:33:29.065Z,52.68
2023-05-25T00:34:28.148Z,52.65
2023-05-25T00:35:28.117Z,52.66
2023-05-25T00:36:28.186Z,52.67
2023-05-25T00:37:29.205Z,52.67
2023-05-25T00:38:28.220Z,52.70
2023-05-25T00:39:29.288Z,52.66
2023-05-25T00:40:28.265Z,52.68
2023-05-25T00:41:29.365Z,52.64
2023-05-25T00:42:28.339Z,52.67
2023-05-25T00:43:29.373Z,52.66
2023-05-25T00:44:29.405Z,52.66
2023-05-25T00:45:29.425Z,52.63
2023-05-25T00:46:29.504Z,52.61
2023-05-25T00:47:29.527Z,52.62
2023-05-25T00:48:29.543Z,52.60
2023-05-25T00:49:29.577Z,52.61
2023-05-25T00:50:29.579Z,52.60
2023-05-25T00:51:29.605Z,52.58
2023-05-25T00:52:29.669Z,52.59
2023-05-25T00:53:28.713Z,52.59
2023-05-25T00:54:29.706Z,52.59
2023-05-25T00:55:29.768Z,52.59
2023-05-25T00:56:28.776Z,52.55
2023-05-25T00:57:29.779Z,52.57
2023-05-25T00:58:29.799Z,52.57
2023-05-25T00:59:28.874Z,52.56
2023-05-25T01:00:29.883Z,52.56
2023-05-25T01:01:29.955Z,52.60
2023-05-25T01:02:29.961Z,52.55
2023-05-25T01:03:30.033Z,52.58
2023-05-25T01:04:30.007Z,52.55
2023-05-25T01:05:29.100Z,52.58
2023-05-25T01:06:30.142Z,52.57
2023-05-25T01:07:30.079Z,52.54
2023-05-25T01:08:30.092Z,52.52
2023-05-25T01:09:30.190Z,52.50
2023-05-25T01:10:29.136Z,52.53
2023-05-25T01:11:29.151Z,52.53
2023-05-25T01:12:30.186Z,52.49
2023-05-25T01:13:29.182Z,52.52
2023-05-25T01:14:30.218Z,52.49
2023-05-25T01:15:30.246Z,52.48
2023-05-25T01:16:30.288Z,52.50
2023-05-25T01:17:30.271Z,52.48
2023-05-25T01:18:29.312Z,52.52
2023-05-25T01:19:30.361Z,52.52
2023-05-25T01:20:30.435Z,52.49
2023-05-25T01:21:29.362Z,52.51
2023-05-25T01:22:30.365Z,52.52
2023-05-25T01:23:29.409Z,52.50
2023-05-25T01:24:30.400Z,52.49
2023-05-25T01:25:30.416Z,52.51
2023-05-25T01:26:30.476Z,52.50
2023-05-25T01:27:30.472Z,52.50
2023-05-25T01:28:30.486Z,52.51
2023-05-25T01:29:30.511Z,52.49
2023-05-25T01:30:29.567Z,52.50
2023-05-25T01:31:29.713Z,52.51
2023-05-25T01:32:29.647Z,52.46
2023-05-25T01:33:30.595Z,52.45
2023-05-25T01:34:29.649Z,52.46
2023-05-25T01:35:30.664Z,52.49
2023-05-25T01:36:29.709Z,52.52
2023-05-25T01:37:30.735Z,52.48
2023-05-25T01:38:29.766Z,52.46
2023-05-25T01:39:30.789Z,52.47
2023-05-25T01:40:30.814Z,52.46
2023-05-25T01:41:30.858Z,52.45
2023-05-25T01:42:29.883Z,52.47
2023-05-25T01:43:30.906Z,52.46
2023-05-25T01:44:30.947Z,52.44
2023-05-25T01:45:31.004Z,52.46
2023-05-25T01:46:31.142Z,52.45
2023-05-25T01:47:30.069Z,52.47
2023-05-25T01:48:31.083Z,52.44
2023-05-25T01:49:30.120Z,52.47
2023-05-25T01:50:31.153Z,52.44
2023-05-25T01:51:31.188Z,52.45
2023-05-25T01:52:30.257Z,52.47
2023-05-25T01:53:31.244Z,52.44
2023-05-25T01:54:31.305Z,52.45
2023-05-25T01:55:31.295Z,52.43
2023-05-25T01:56:30.342Z,52.44
2023-05-25T01:57:31.391Z,52.43
2023-05-25T01:58:30.407Z,52.44
2023-05-25T01:59:31.432Z,52.41
2023-05-25T02:00:31.513Z,52.43
2023-05-25T02:01:31.560Z,52.42
2023-05-25T02:02:30.675Z,52.38
2023-05-25T02:03:30.575Z,52.41
2023-05-25T02:04:31.696Z,52.38
2023-05-25T02:05:30.664Z,52.37
2023-05-25T02:06:30.694Z,52.37
2023-05-25T02:07:31.721Z,52.36
2023-05-25T02:08:31.767Z,52.37
2023-05-25T02:09:31.809Z,52.39
2023-05-25T02:10:31.836Z,52.31
2023-05-25T02:11:30.875Z,52.32
2023-05-25T02:12:30.893Z,52.34
2023-05-25T02:13:31.922Z,52.32
2023-05-25T02:14:30.952Z,52.32
2023-05-25T02:15:31.009Z,52.35
2023-05-25T02:16:32.066Z,52.32
2023-05-25T02:17:32.109Z,52.35
2023-05-25T02:18:31.140Z,52.34
2023-05-25T02:19:32.196Z,52.37
2023-05-25T02:20:32.194Z,52.33
2023-05-25T02:21:32.217Z,52.28
2023-05-25T02:22:31.267Z,52.36
2023-05-25T02:23:31.292Z,52.31
2023-05-25T02:24:32.331Z,52.32
2023-05-25T02:25:31.365Z,52.34
2023-05-25T02:26:32.387Z,52.31
2023-05-25T02:27:32.433Z,52.30
2023-05-25T02:28:32.459Z,52.33
2023-05-25T02:29:32.516Z,52.32
2023-05-25T02:30:32.596Z,52.31
2023-05-25T02:31:32.609Z,52.33
2023-05-25T02:32:31.661Z,52.31
2023-05-25T02:33:32.661Z,52.33
2023-05-25T02:34:31.721Z,52.34
2023-05-25T02:35:32.729Z,52.32
2023-05-25T02:36:32.770Z,52.29
2023-05-25T02:37:32.809Z,52.31
2023-05-25T02:38:32.928Z,52.28
2023-05-25T02:39:32.893Z,52.29
2023-05-25T02:40:32.933Z,52.29
2023-05-25T02:41:31.948Z,52.30
2023-05-25T02:42:32.028Z,52.32
2023-05-25T02:43:33.056Z,52.28
2023-05-25T02:44:32.084Z,52.25
2023-05-25T02:45:32.152Z,52.32
2023-05-25T02:46:32.218Z,52.24
2023-05-25T02:47:33.310Z,52.23
2023-05-25T02:48:33.295Z,52.26
2023-05-25T02:49:32.308Z,52.23
2023-05-25T02:50:33.369Z,52.23
2023-05-25T02:51:32.385Z,52.24
2023-05-25T02:52:33.428Z,52.18
2023-05-25T02:53:32.441Z,52.20
2023-05-25T02:54:32.491Z,52.22
2023-05-25T02:55:33.548Z,52.20
2023-05-25T02:56:32.555Z,52.18
2023-05-25T02:57:33.597Z,52.17
2023-05-25T02:58:33.636Z,52.13
2023-05-25T02:59:33.678Z,52.13
2023-05-25T03:00:32.757Z,52.16
2023-05-25T03:01:33.823Z,52.18
2023-05-25T03:02:32.817Z,52.18
2023-05-25T03:03:32.870Z,52.19
2023-05-25T03:04:33.917Z,52.17
2023-05-25T03:05:33.916Z,52.13
2023-05-25T03:06:34.010Z,52.12
2023-05-25T03:07:34.009Z,52.10
2023-05-25T03:08:33.029Z,52.15
2023-05-25T03:09:34.102Z,52.18
2023-05-25T03:10:34.129Z,52.14
2023-05-25T03:11:34.238Z,52.13
2023-05-25T03:12:34.201Z,52.12
2023-05-25T03:13:34.253Z,52.11
2023-05-25T03:14:33.291Z,52.07
2023-05-25T03:15:34.333Z,52.08
2023-05-25T03:16:34.423Z,52.10
2023-05-25T03:17:34.401Z,52.08
2023-05-25T03:18:34.436Z,52.05
2023-05-25T03:19:33.534Z,52.08
2023-05-25T03:20:34.692Z,52.10
2023-05-25T03:21:33.581Z,52.09
2023-05-25T03:22:33.636Z,52.07
2023-05-25T03:23:34.659Z,52.07
2023-05-25T03:24:34.760Z,52.08
2023-05-25T03:25:34.759Z,52.10
2023-05-25T03:26:33.810Z,52.06
2023-05-25T03:27:34.824Z,52.07
2023-05-25T03:28:34.892Z,52.03
2023-05-25T03:29:33.901Z,52.03
2023-05-25T03:30:33.984Z,52.02
2023-05-25T03:31:34.016Z,52.02
2023-05-25T03:32:35.082Z,52.01
2023-05-25T03:33:35.078Z,52.02
2023-05-25T03:34:35.128Z,52.04
2023-05-25T03:35:34.157Z,52.03
2023-05-25T03:36:35.176Z,52.03
2023-05-25T03:37:35.236Z,52.06
2023-05-25T03:38:34.269Z,52.07
2023-05-25T03:39:34.334Z,52.05
2023-05-25T03:40:35.347Z,52.03
2023-05-25T03:41:35.389Z,51.97
2023-05-25T03:42:35.412Z,52.00
2023-05-25T03:43:35.498Z,52.02
2023-05-25T03:44:35.521Z,51.99
2023-05-25T03:45:35.547Z,51.99
2023-05-25T03:46:35.669Z,51.98
2023-05-25T03:47:35.668Z,52.00
2023-05-25T03:48:34.642Z,51.99
2023-05-25T03:49:35.710Z,51.97
2023-05-25T03:50:35.769Z,51.97
2023-05-25T03:51:35.770Z,51.95
2023-05-25T03:52:35.799Z,51.92
2023-05-25T03:53:35.845Z,51.91
2023-05-25T03:54:35.946Z,51.92
2023-05-25T03:55:34.930Z,51.97
2023-05-25T03:56:36.009Z,51.95
2023-05-25T03:57:36.009Z,51.95
2023-05-25T03:58:36.053Z,51.98
2023-05-25T03:59:36.127Z,51.95
2023-05-25T04:00:36.133Z,52.00
2023-05-25T04:01:35.321Z,51.96
2023-05-25T04:02:36.280Z,51.96
2023-05-25T04:03:35.500Z,51.96
2023-05-25T04:04:35.392Z,51.94
2023-05-25T04:05:35.341Z,51.91
2023-05-25T04:06:36.377Z,51.93
2023-05-25T04:07:36.456Z,51.91
2023-05-25T04:08:35.564Z,51.95
2023-05-25T04:09:36.532Z,51.94
2023-05-25T04:10:36.637Z,51.89
2023-05-25T04:11:36.628Z,51.89
2023-05-25T04:12:36.642Z,51.90
2023-05-25T04:13:36.666Z,51.90
2023-05-25T04:14:36.733Z,51.91
2023-05-25T04:15:35.750Z,51.90
2023-05-25T04:16:36.825Z,51.94
2023-05-25T04:17:39.170Z,51.89
2023-05-25T04:18:35.830Z,51.92
2023-05-25T04:19:36.831Z,51.92
2023-05-25T04:20:36.914Z,51.92
2023-05-25T04:21:36.825Z,51.90
2023-05-25T04:22:36.802Z,51.90
2023-05-25T04:23:36.777Z,51.89
2023-05-25T04:24:36.779Z,51.86
2023-05-25T04:25:36.806Z,51.83
2023-05-25T04:26:36.773Z,51.87
2023-05-25T04:27:36.771Z,51.89
2023-05-25T04:28:36.738Z,51.89
2023-05-25T04:29:36.748Z,51.94
2023-05-25T04:30:36.748Z,51.98
2023-05-25T04:31:35.728Z,51.98
2023-05-25T04:32:36.742Z,51.95
2023-05-25T04:33:36.710Z,51.95
2023-05-25T04:34:35.709Z,51.96
2023-05-25T04:35:36.758Z,51.96
2023-05-25T04:36:36.686Z,51.94
2023-05-25T04:37:36.681Z,51.96
2023-05-25T04:38:35.685Z,51.95
2023-05-25T04:39:36.673Z,51.87
2023-05-25T04:40:35.683Z,51.88
2023-05-25T04:41:35.664Z,51.80
2023-05-25T04:42:35.679Z,51.83
2023-05-25T04:43:35.675Z,51.84
2023-05-25T04:44:36.657Z,51.82
2023-05-25T04:45:35.653Z,51.81
2023-05-25T04:46:36.630Z,51.83
2023-05-25T04:47:36.632Z,51.76
2023-05-25T04:48:35.617Z,51.80
2023-05-25T04:49:36.638Z,51.78
2023-05-25T04:50:36.669Z,51.77
2023-05-25T04:51:36.680Z,51.75
2023-05-25T04:52:36.719Z,51.74
2023-05-25T04:53:35.756Z,51.74
2023-05-25T04:54:35.820Z,51.72
2023-05-25T04:55:36.894Z,51.76
2023-05-25T04:56:35.878Z,51.71
2023-05-25T04:57:36.943Z,51.74
2023-05-25T04:58:35.989Z,51.72
2023-05-25T04:59:35.983Z,51.70
2023-05-25T05:00:37.023Z,51.70
2023-05-25T05:01:37.063Z,51.64
2023-05-25T05:02:37.125Z,51.63
2023-05-25T05:03:37.254Z,51.64
2023-05-25T05:04:36.158Z,51.63
2023-05-25T05:05:37.262Z,51.63
2023-05-25T05:06:37.201Z,51.62
2023-05-25T05:07:36.283Z,51.62
2023-05-25T05:08:37.325Z,51.57
2023-05-25T05:09:37.316Z,51.58
2023-05-25T05:10:37.395Z,51.58
2023-05-25T05:11:37.435Z,51.58
2023-05-25T05:12:37.434Z,51.59
2023-05-25T05:13:36.528Z,51.59
2023-05-25T05:14:37.524Z,51.60
2023-05-25T05:15:37.528Z,51.60
2023-05-25T05:16:36.548Z,51.57
2023-05-25T05:17:37.615Z,51.57
2023-05-25T05:18:36.627Z,51.56
2023-05-25T05:19:37.598Z,51.55
2023-05-25T05:20:36.752Z,51.55
2023-05-25T05:21:36.618Z,51.54
2023-05-25T05:22:37.657Z,51.48
2023-05-25T05:23:37.743Z,51.45
2023-05-25T05:24:37.724Z,51.46
2023-05-25T05:25:37.793Z,51.44
2023-05-25T05:26:51.872Z,51.42
2023-05-25T05:27:37.912Z,51.46
2023-05-25T05:28:37.744Z,51.40
2023-05-25T05:29:38.049Z,51.40
2023-05-25T05:30:37.738Z,51.42
2023-05-25T05:31:37.719Z,51.41
2023-05-25T05:32:37.691Z,51.40
2023-05-25T05:33:37.748Z,51.34
2023-05-25T05:34:37.784Z,51.34
2023-05-25T05:35:37.714Z,51.35
2023-05-25T05:36:48.691Z,51.37
2023-05-25T05:37:37.687Z,51.34
2023-05-25T05:38:39.913Z,51.34
2023-05-25T05:39:37.620Z,51.34
2023-05-25T05:40:37.635Z,51.34
2023-05-25T05:41:36.609Z,51.31
2023-05-25T05:42:37.717Z,51.29
2023-05-25T05:43:37.645Z,51.31
2023-05-25T05:44:36.631Z,51.30
2023-05-25T05:45:36.611Z,51.30
2023-05-25T05:46:36.645Z,51.28
2023-05-25T05:47:37.741Z,51.26
2023-05-25T05:48:36.635Z,51.27
2023-05-25T05:49:37.601Z,51.27
2023-05-25T05:50:39.069Z,51.23
2023-05-25T05:51:37.616Z,51.27
2023-05-25T05:52:37.586Z,51.26
2023-05-25T05:53:37.591Z,51.24
2023-05-25T05:54:36.538Z,51.09
2023-05-25T05:55:37.557Z,50.99
2023-05-25T05:56:36.701Z,50.90
2023-05-25T05:57:37.631Z,50.89
2023-05-25T05:58:37.552Z,50.94
2023-05-25T05:59:37.553Z,51.02
2023-05-25T06:00:37.575Z,51.07
2023-05-25T06:01:37.563Z,51.11
2023-05-25T06:02:38.073Z,51.11
2023-05-25T06:03:36.521Z,51.08
2023-05-25T06:04:37.497Z,51.09
2023-05-25T06:05:36.512Z,51.04
2023-05-25T06:06:37.498Z,51.04
2023-05-25T06:07:37.492Z,51.05
2023-05-25T06:08:37.580Z,51.00
2023-05-25T06:09:37.475Z,51.02
2023-05-25T06:10:36.524Z,50.97
2023-05-25T06:11:36.468Z,50.98
2023-05-25T06:12:37.471Z,50.97
2023-05-25T06:13:37.443Z,50.94
2023-05-25T06:14:37.419Z,50.94
2023-05-25T06:15:37.420Z,50.91
2023-05-25T06:16:36.521Z,50.92
2023-05-25T06:17:37.576Z,50.88
2023-05-25T06:18:37.489Z,50.86
2023-05-25T06:19:37.379Z,50.87
2023-05-25T06:20:37.418Z,50.86
2023-05-25T06:21:36.370Z,50.83
2023-05-25T06:22:36.377Z,50.81
2023-05-25T06:23:36.342Z,50.81
2023-05-25T06:24:37.708Z,50.80
2023-05-25T06:25:36.397Z,50.80
2023-05-25T06:26:36.337Z,50.82
2023-05-25T06:27:37.370Z,50.79
2023-05-25T06:28:37.336Z,50.75
2023-05-25T06:29:37.376Z,50.78
2023-05-25T06:30:37.313Z,50.78
2023-05-25T06:31:37.322Z,50.77
2023-05-25T06:32:38.271Z,50.74
2023-05-25T06:33:37.658Z,50.76
2023-05-25T06:34:38.267Z,50.77
2023-05-25T06:35:37.287Z,50.72
2023-05-25T06:36:37.460Z,50.72
2023-05-25T06:37:37.413Z,50.71
2023-05-25T06:38:37.265Z,50.71
2023-05-25T06:39:36.358Z,50.68
2023-05-25T06:40:36.396Z,50.70
2023-05-25T06:41:36.314Z,50.70
2023-05-25T06:42:45.362Z,50.69
2023-05-25T06:43:43.338Z,50.70
2023-05-25T06:44:37.358Z,50.71
2023-05-25T06:45:37.300Z,50.71
2023-05-25T06:46:37.334Z,50.70
2023-05-25T06:47:36.332Z,50.70
2023-05-25T06:48:37.290Z,50.70
2023-05-25T06:49:36.281Z,50.70
2023-05-25T06:50:37.434Z,50.72
2023-05-25T06:51:36.271Z,50.73
2023-05-25T06:52:37.272Z,50.74
2023-05-25T06:53:36.257Z,50.72
2023-05-25T06:54:37.250Z,50.73
2023-05-25T06:55:37.260Z,50.75
2023-05-25T06:56:36.232Z,50.70
2023-05-25T06:57:37.269Z,50.72
2023-05-25T06:58:37.226Z,50.43
2023-05-25T06:59:36.215Z,50.97
2023-05-25T07:00:37.198Z,50.73
2023-05-25T07:01:36.329Z,50.92
2023-05-25T07:02:36.232Z,50.66
2023-05-25T07:03:37.177Z,50.61
2023-05-25T07:04:37.210Z,50.60
2023-05-25T07:05:37.193Z,50.59
2023-05-25T07:06:37.192Z,50.49
2023-05-25T07:07:36.178Z,50.42
2023-05-25T07:08:36.155Z,50.54
2023-05-25T07:09:37.169Z,50.63
2023-05-25T07:10:37.136Z,50.85
2023-05-25T07:11:37.140Z,50.95
2023-05-25T07:12:37.144Z,50.93
2023-05-25T07:13:36.141Z,50.93
2023-05-25T07:14:37.120Z,50.94
2023-05-25T07:15:36.109Z,50.99
2023-05-25T07:16:36.238Z,50.96
2023-05-25T07:17:37.153Z,50.94
2023-05-25T07:18:36.094Z,50.85
2023-05-25T07:19:37.078Z,50.91
2023-05-25T07:20:37.163Z,50.87
2023-05-25T07:21:37.081Z,50.91
2023-05-25T07:22:37.100Z,50.89
2023-05-25T07:23:37.157Z,50.89
2023-05-25T07:24:36.197Z,50.84
2023-05-25T07:25:36.263Z,50.75
2023-05-25T07:26:36.327Z,50.72
2023-05-25T07:27:37.365Z,50.70
2023-05-25T07:28:37.382Z,50.70
2023-05-25T07:29:37.441Z,50.77
2023-05-25T07:30:37.496Z,50.77
2023-05-25T07:31:37.567Z,50.84
2023-05-25T07:32:37.615Z,50.75
2023-05-25T07:33:37.632Z,50.88
2023-05-25T07:34:37.678Z,50.98
2023-05-25T07:35:37.771Z,50.94
2023-05-25T07:36:37.770Z,50.89
2023-05-25T07:37:37.829Z,51.01
2023-05-25T07:38:37.888Z,51.06
2023-05-25T07:39:37.900Z,51.04
2023-05-25T07:40:36.955Z,51.04
2023-05-25T07:41:36.996Z,51.08
2023-05-25T07:42:38.040Z,51.17
2023-05-25T07:43:38.093Z,51.12
2023-05-25T07:44:38.159Z,50.94
2023-05-25T07:45:38.186Z,50.72
2023-05-25T07:46:38.332Z,50.91
2023-05-25T07:47:37.303Z,50.99
2023-05-25T07:48:38.545Z,51.00
2023-05-25T07:49:37.342Z,51.07
2023-05-25T07:50:37.393Z,51.14
2023-05-25T07:51:38.811Z,51.11
2023-05-25T07:52:37.503Z,51.16
2023-05-25T07:53:38.517Z,51.14
2023-05-25T07:54:37.644Z,51.13
2023-05-25T07:55:38.612Z,51.13
2023-05-25T07:56:38.679Z,51.12
2023-05-25T07:57:37.717Z,51.11
2023-05-25T07:58:38.770Z,51.13
2023-05-25T07:59:38.789Z,51.14
2023-05-25T08:00:37.843Z,51.15
2023-05-25T08:01:38.927Z,51.18
2023-05-25T08:02:39.048Z,51.14
2023-05-25T08:03:48.997Z,51.17
2023-05-25T08:04:39.093Z,51.20
2023-05-25T08:05:38.961Z,51.20
2023-05-25T08:06:38.964Z,51.18
2023-05-25T08:07:38.986Z,51.21
2023-05-25T08:08:37.948Z,51.19
2023-05-25T08:09:38.980Z,51.24
2023-05-25T08:10:38.941Z,51.24
2023-05-25T08:11:37.956Z,51.22
2023-05-25T08:12:46.703Z,51.27
2023-05-25T08:13:38.932Z,51.28
2023-05-25T08:14:37.931Z,51.29
2023-05-25T08:15:38.911Z,51.25
2023-05-25T08:16:37.930Z,51.22
2023-05-25T08:17:37.915Z,51.20
2023-05-25T08:18:38.881Z,51.23
2023-05-25T08:19:38.877Z,51.24
2023-05-25T08:20:37.966Z,51.22
2023-05-25T08:21:38.878Z,51.21
2023-05-25T08:22:38.868Z,51.19
2023-05-25T08:23:38.852Z,51.20
2023-05-25T08:24:38.906Z,51.18
2023-05-25T08:25:38.950Z,51.22
2023-05-25T08:26:53.026Z,51.20
2023-05-25T08:27:38.992Z,51.23
2023-05-25T08:28:38.962Z,51.19
2023-05-25T08:29:38.946Z,51.18
2023-05-25T08:30:37.961Z,51.18
2023-05-25T08:31:38.038Z,51.17
2023-05-25T08:32:38.940Z,51.16
2023-05-25T08:33:38.931Z,51.17
2023-05-25T08:34:38.934Z,51.13
2023-05-25T08:35:38.933Z,51.15
2023-05-25T08:36:37.924Z,51.15
2023-05-25T08:37:37.905Z,51.17
2023-05-25T08:38:38.895Z,51.16
2023-05-25T08:39:38.895Z,51.14
2023-05-25T08:40:37.872Z,51.14
2023-05-25T08:41:37.896Z,51.13
2023-05-25T08:42:37.864Z,51.12
2023-05-25T08:43:37.863Z,51.07
2023-05-25T08:44:37.850Z,51.11
2023-05-25T08:45:42.409Z,51.11
2023-05-25T08:46:38.866Z,51.10
2023-05-25T08:47:38.858Z,51.09
2023-05-25T08:48:42.001Z,51.10
2023-05-25T08:49:37.929Z,51.11
2023-05-25T08:50:38.815Z,51.13
2023-05-25T08:51:37.845Z,51.10
2023-05-25T08:52:37.796Z,51.07
2023-05-25T08:53:38.852Z,51.08
2023-05-25T08:54:37.785Z,51.05
2023-05-25T08:55:38.779Z,51.06
2023-05-25T08:56:38.828Z,51.03
2023-05-25T08:57:38.790Z,51.06
2023-05-25T08:58:38.803Z,51.02
2023-05-25T08:59:38.773Z,51.00
2023-05-25T09:00:37.741Z,51.00
2023-05-25T09:01:37.807Z,51.00
2023-05-25T09:02:38.866Z,51.02
2023-05-25T09:03:37.931Z,51.01
2023-05-25T09:04:37.891Z,50.96
2023-05-25T09:05:38.934Z,50.96
2023-05-25T09:06:38.994Z,50.93
2023-05-25T09:07:38.050Z,50.91
2023-05-25T09:08:39.092Z,50.94
2023-05-25T09:09:39.155Z,50.95
2023-05-25T09:10:39.193Z,50.91
2023-05-25T09:11:41.614Z,50.90
2023-05-25T09:12:38.239Z,50.90
2023-05-25T09:13:39.276Z,50.90
2023-05-25T09:14:39.274Z,50.89
2023-05-25T09:15:39.208Z,50.89
2023-05-25T09:16:38.257Z,50.87
2023-05-25T09:17:38.461Z,50.87
2023-05-25T09:18:39.205Z,50.85
2023-05-25T09:19:39.189Z,50.86
2023-05-25T09:20:38.209Z,50.85
2023-05-25T09:21:39.186Z,50.83
2023-05-25T09:22:38.195Z,50.84
2023-05-25T09:23:39.166Z,50.82
2023-05-25T09:24:39.153Z,50.77
2023-05-25T09:25:38.159Z,50.78
2023-05-25T09:26:38.152Z,50.80
2023-05-25T09:27:38.149Z,50.75
2023-05-25T09:28:39.186Z,50.77
2023-05-25T09:29:39.280Z,50.79
2023-05-25T09:30:38.287Z,50.72
2023-05-25T09:31:38.366Z,50.76
2023-05-25T09:32:39.399Z,50.72
2023-05-25T09:33:39.446Z,50.73
2023-05-25T09:34:39.471Z,50.74
2023-05-25T09:35:39.544Z,50.73
2023-05-25T09:36:39.692Z,50.73
2023-05-25T09:37:39.912Z,50.75
2023-05-25T09:38:39.906Z,50.73
2023-05-25T09:39:38.863Z,50.72
2023-05-25T09:40:38.831Z,50.76
2023-05-25T09:41:39.856Z,50.81
2023-05-25T09:42:39.889Z,50.80
2023-05-25T09:43:46.778Z,50.77
2023-05-25T09:44:39.957Z,50.73
2023-05-25T09:45:39.962Z,50.75
2023-05-25T09:46:40.449Z,50.73
2023-05-25T09:47:39.951Z,50.74
2023-05-25T09:48:38.921Z,50.77
2023-05-25T09:49:39.900Z,50.69
2023-05-25T09:50:39.904Z,50.68
2023-05-25T09:51:40.356Z,50.70
2023-05-25T09:52:38.886Z,50.68
2023-05-25T09:53:39.878Z,50.72
2023-05-25T09:54:38.862Z,50.68
2023-05-25T09:55:52.014Z,50.68
2023-05-25T09:56:39.864Z,50.68
2023-05-25T09:57:39.839Z,50.65
2023-05-25T09:58:38.838Z,50.65
2023-05-25T09:59:38.827Z,50.66
2023-05-25T10:00:39.815Z,50.60
2023-05-25T10:01:41.765Z,50.67
2023-05-25T10:02:38.814Z,50.70
2023-05-25T10:03:43.688Z,50.70
2023-05-25T10:04:39.839Z,50.74
2023-05-25T10:05:38.794Z,50.70
2023-05-25T10:06:39.829Z,50.68
2023-05-25T10:07:38.791Z,50.64
2023-05-25T10:08:38.790Z,50.59
2023-05-25T10:09:39.763Z,50.62
2023-05-25T10:10:39.772Z,50.65
2023-05-25T10:11:38.753Z,50.63
2023-05-25T10:12:39.737Z,50.61
2023-05-25T10:13:38.740Z,50.60
2023-05-25T10:14:39.749Z,50.58
2023-05-25T10:15:39.776Z,50.57
2023-05-25T10:16:39.773Z,50.58
2023-05-25T10:17:39.777Z,50.58
2023-05-25T10:18:39.702Z,50.60
2023-05-25T10:19:39.727Z,50.59
2023-05-25T10:20:39.691Z,50.58
2023-05-25T10:21:39.686Z,50.63
2023-05-25T10:22:38.673Z,50.58
2023-05-25T10:23:38.665Z,50.59
2023-05-25T10:24:39.653Z,50.58
2023-05-25T10:25:38.649Z,50.55
2023-05-25T10:26:39.649Z,50.55
2023-05-25T10:27:39.648Z,50.60
2023-05-25T10:28:39.624Z,50.58
2023-05-25T10:29:38.610Z,50.57
2023-05-25T10:30:39.661Z,50.57
2023-05-25T10:31:38.734Z,50.57
2023-05-25T10:32:39.852Z,50.57
2023-05-25T10:33:38.851Z,50.57
2023-05-25T10:34:39.870Z,50.58
2023-05-25T10:35:56.293Z,50.53
2023-05-25T10:36:39.913Z,50.55
2023-05-25T10:37:39.908Z,50.55
2023-05-25T10:38:38.884Z,50.56
2023-05-25T10:39:39.885Z,50.56
2023-05-25T10:40:39.875Z,50.53
2023-05-25T10:41:38.869Z,50.55
2023-05-25T10:42:39.883Z,50.52
2023-05-25T10:43:39.881Z,50.54
2023-05-25T10:44:39.849Z,50.54
2023-05-25T10:45:38.822Z,50.54
2023-05-25T10:46:39.921Z,50.54
2023-05-25T10:47:39.842Z,50.52
2023-05-25T10:48:39.852Z,50.56
2023-05-25T10:49:39.815Z,50.58
2023-05-25T10:50:39.795Z,50.57
2023-05-25T10:51:39.801Z,50.56
2023-05-25T10:52:39.796Z,50.56
2023-05-25T10:53:38.769Z,50.55
2023-05-25T10:54:39.752Z,50.53
2023-05-25T10:55:39.748Z,50.56
2023-05-25T10:56:39.773Z,50.58
2023-05-25T10:57:39.738Z,50.55
2023-05-25T10:58:38.754Z,50.55
2023-05-25T10:59:38.731Z,50.56
2023-05-25T11:00:39.832Z,50.58
2023-05-25T11:01:38.854Z,50.57
2023-05-25T11:02:39.714Z,50.58
2023-05-25T11:03:39.750Z,50.57
2023-05-25T11:04:38.860Z,50.59
2023-05-25T11:05:39.888Z,50.58
2023-05-25T11:06:39.916Z,50.61
2023-05-25T11:07:38.929Z,50.58
2023-05-25T11:08:38.995Z,50.56
2023-05-25T11:09:40.050Z,50.59
2023-05-25T11:10:39.082Z,50.56
2023-05-25T11:11:39.139Z,50.56
2023-05-25T11:12:40.185Z,50.54
2023-05-25T11:13:41.214Z,50.57
2023-05-25T11:14:40.284Z,50.56
2023-05-25T11:15:39.337Z,50.52
2023-05-25T11:16:40.412Z,50.56
2023-05-25T11:17:39.455Z,50.56
2023-05-25T11:18:40.481Z,50.58
2023-05-25T11:19:40.539Z,50.53
2023-05-25T11:20:40.171Z,50.55
2023-05-25T11:21:40.690Z,50.52
2023-05-25T11:22:40.693Z,50.54
2023-05-25T11:23:40.745Z,50.54
2023-05-25T11:24:39.792Z,50.53
2023-05-25T11:25:40.843Z,50.51
2023-05-25T11:26:40.882Z,50.52
2023-05-25T11:27:40.932Z,50.53
2023-05-25T11:28:39.990Z,50.56
2023-05-25T11:29:41.062Z,50.54
2023-05-25T11:30:41.111Z,50.52
2023-05-25T11:31:43.683Z,50.56
2023-05-25T11:32:41.158Z,50.56
2023-05-25T11:33:40.147Z,50.56
2023-05-25T11:34:41.132Z,50.56
2023-05-25T11:35:41.116Z,50.57
2023-05-25T11:36:41.121Z,50.57
2023-05-25T11:37:41.438Z,50.54
2023-05-25T11:38:40.983Z,50.56
2023-05-25T11:39:41.153Z,50.54
2023-05-25T11:40:41.089Z,50.55
2023-05-25T11:41:41.061Z,50.56
2023-05-25T11:42:40.394Z,50.58
2023-05-25T11:43:40.049Z,50.58
2023-05-25T11:44:40.050Z,50.53
2023-05-25T11:45:41.030Z,50.55
2023-05-25T11:46:40.059Z,50.57
2023-05-25T11:47:41.107Z,50.56
2023-05-25T11:48:41.017Z,50.57
2023-05-25T11:49:41.013Z,50.57
2023-05-25T11:50:40.995Z,50.59
2023-05-25T11:51:39.993Z,50.53
2023-05-25T11:52:40.984Z,50.57
2023-05-25T11:53:39.990Z,50.56
2023-05-25T11:54:41.011Z,50.53
2023-05-25T11:55:40.988Z,50.56
2023-05-25T11:56:41.061Z,50.55
2023-05-25T11:57:39.952Z,50.56
2023-05-25T11:58:40.945Z,50.54
2023-05-25T11:59:40.930Z,50.55
2023-05-25T12:00:40.927Z,50.56
2023-05-25T12:01:39.939Z,50.57
2023-05-25T12:02:40.143Z,50.56
2023-05-25T12:03:39.965Z,50.58
2023-05-25T12:04:41.056Z,50.60
2023-05-25T12:05:40.074Z,50.58
2023-05-25T12:06:41.044Z,50.57
2023-05-25T12:07:40.093Z,50.56
2023-05-25T12:08:41.108Z,50.60
2023-05-25T12:09:41.214Z,50.59
2023-05-25T12:10:41.288Z,50.63
2023-05-25T12:11:41.251Z,50.61
2023-05-25T12:12:40.333Z,50.60
2023-05-25T12:13:41.367Z,50.60
2023-05-25T12:14:41.419Z,50.65
2023-05-25T12:15:41.666Z,50.60
2023-05-25T12:16:41.683Z,50.59
2023-05-25T12:17:41.600Z,50.58
2023-05-25T12:18:40.639Z,50.57
2023-05-25T12:19:40.739Z,50.63
2023-05-25T12:20:40.770Z,50.73
2023-05-25T12:21:41.782Z,50.67
2023-05-25T12:22:40.835Z,50.68
2023-05-25T12:23:41.878Z,50.74
2023-05-25T12:24:41.925Z,50.75
2023-05-25T12:25:50.185Z,50.74
2023-05-25T12:26:41.975Z,50.74
2023-05-25T12:27:41.982Z,50.73
2023-05-25T12:28:41.964Z,50.72
2023-05-25T12:29:41.958Z,50.73
2023-05-25T12:30:42.002Z,50.73
2023-05-25T12:31:40.948Z,50.73
2023-05-25T12:32:41.975Z,50.70
2023-05-25T12:33:41.911Z,50.71
2023-05-25T12:34:41.905Z,50.69
2023-05-25T12:35:41.018Z,50.70
2023-05-25T12:36:41.920Z,50.71
2023-05-25T12:37:41.948Z,50.69
2023-05-25T12:38:42.898Z,50.74
2023-05-25T12:39:41.036Z,50.71
2023-05-25T12:40:42.302Z,50.70
2023-05-25T12:41:42.178Z,50.69
2023-05-25T12:42:42.202Z,50.70
2023-05-25T12:43:42.241Z,50.71
2023-05-25T12:44:42.306Z,50.70
2023-05-25T12:45:42.364Z,50.69
2023-05-25T12:46:41.426Z,50.69
2023-05-25T12:47:41.537Z,50.70
2023-05-25T12:48:42.480Z,50.73
2023-05-25T12:49:41.593Z,50.71
2023-05-25T12:50:42.813Z,50.67
2023-05-25T12:51:42.646Z,50.68
2023-05-25T12:52:41.674Z,50.67